createdAt,value
2019-02-23T00:00:49.139Z,46.68
2019-02-23T00:03:15.135Z,46.63
2019-02-23T00:05:41.265Z,46.78
2019-02-23T00:08:07.266Z,46.48
2019-02-23T00:10:33.263Z,46.83
2019-02-23T00:12:59.260Z,46.61
2019-02-23T00:15:25.257Z,46.72
2019-02-23T00:17:51.263Z,46.67
2019-02-23T00:20:17.254Z,46.62
2019-02-23T00:22:43.252Z,46.55
2019-02-23T00:25:09.246Z,46.44
2019-02-23T00:27:35.247Z,46.41
2019-02-23T00:30:01.252Z,46.69
2019-02-23T00:32:27.247Z,46.64
2019-02-23T00:34:53.247Z,46.49
2019-02-23T00:37:19.244Z,46.22
2019-02-23T00:39:45.244Z,46.49
2019-02-23T00:42:11.241Z,46.25
2019-02-23T00:44:37.262Z,46.53
2019-02-23T00:47:03.262Z,46.40
2019-02-23T00:49:36.275Z,46.54
2019-02-23T00:51:55.323Z,46.39
2019-02-23T00:54:21.262Z,46.42
2019-02-23T00:56:47.263Z,46.08
2019-02-23T00:59:13.254Z,46.32
2019-02-23T01:01:39.256Z,46.38
2019-02-23T01:04:05.270Z,46.42
2019-02-23T01:06:31.283Z,45.89
2019-02-23T01:08:57.281Z,46.36
2019-02-23T01:11:23.286Z,46.30
2019-02-23T01:13:49.288Z,46.31
2019-02-23T01:16:15.289Z,46.30
2019-02-23T01:18:41.284Z,46.00
2019-02-23T01:21:07.283Z,46.16
2019-02-23T01:23:33.278Z,45.81
2019-02-23T01:25:59.271Z,46.19
2019-02-23T01:28:25.276Z,45.83
2019-02-23T01:30:51.270Z,45.86
2019-02-23T01:33:17.268Z,46.12
2019-02-23T01:35:43.260Z,46.09
2019-02-23T01:38:09.255Z,45.59
2019-02-23T01:40:35.263Z,46.11
2019-02-23T01:43:01.257Z,45.70
2019-02-23T01:45:27.290Z,46.01
2019-02-23T01:47:53.283Z,45.59
2019-02-23T01:50:19.293Z,46.07
2019-02-23T01:52:45.294Z,45.92
2019-02-23T01:55:11.313Z,46.06
2019-02-23T01:57:37.319Z,45.94
2019-02-23T02:00:03.318Z,45.97
2019-02-23T02:02:29.317Z,45.34
2019-02-23T02:04:55.310Z,45.72
2019-02-23T02:07:21.310Z,45.71
2019-02-23T02:09:47.305Z,45.96
2019-02-23T02:12:13.307Z,45.92
2019-02-23T02:14:39.301Z,45.79
2019-02-23T02:17:05.310Z,45.88
2019-02-23T02:19:31.301Z,45.70
2019-02-23T02:21:57.291Z,45.92
2019-02-23T02:24:23.292Z,45.90
2019-02-23T02:26:49.291Z,45.34
2019-02-23T02:29:15.291Z,45.79
2019-02-23T02:31:41.289Z,45.74
2019-02-23T02:34:07.294Z,45.67
2019-02-23T02:36:33.290Z,45.82
2019-02-23T02:38:59.296Z,45.74
2019-02-23T02:41:25.298Z,45.52
2019-02-23T02:43:51.300Z,45.50
2019-02-23T02:46:17.306Z,45.61
2019-02-23T02:48:43.310Z,45.55
2019-02-23T02:51:09.299Z,45.71
2019-02-23T02:53:35.301Z,45.73
2019-02-23T02:56:01.301Z,45.56
2019-02-23T02:58:27.299Z,45.31
2019-02-23T03:00:53.290Z,45.55
2019-02-23T03:03:19.294Z,45.47
2019-02-23T03:05:45.286Z,45.63
2019-02-23T03:08:11.295Z,45.47
2019-02-23T03:10:37.292Z,45.65
2019-02-23T03:13:03.299Z,45.53
2019-02-23T03:15:29.293Z,45.54
2019-02-23T03:17:55.290Z,45.07
2019-02-23T03:20:21.297Z,44.91
2019-02-23T03:22:47.289Z,45.25
2019-02-23T03:25:13.288Z,45.31
2019-02-23T03:27:39.289Z,45.45
2019-02-23T03:30:05.288Z,45.03
2019-02-23T03:32:31.281Z,45.52
2019-02-23T03:34:57.280Z,45.45
2019-02-23T03:37:23.274Z,45.51
2019-02-23T03:39:49.276Z,45.36
2019-02-23T03:42:15.274Z,45.40
2019-02-23T03:44:41.274Z,45.53
2019-02-23T03:47:07.270Z,45.49
2019-02-23T03:49:33.286Z,45.40
2019-02-23T03:51:59.279Z,45.26
2019-02-23T03:54:25.276Z,45.35
2019-02-23T03:56:51.274Z,44.91
2019-02-23T03:59:17.273Z,45.29
2019-02-23T04:01:43.329Z,45.38
2019-02-23T04:04:09.325Z,45.29
2019-02-23T04:06:35.328Z,45.29
2019-02-23T04:09:02.807Z,45.39
2019-02-23T04:11:27.356Z,45.09
2019-02-23T04:13:53.352Z,45.32
2019-02-23T04:16:19.352Z,45.23
2019-02-23T04:18:45.345Z,45.36
2019-02-23T04:21:11.452Z,45.17
2019-02-23T04:23:37.423Z,45.14
2019-02-23T04:26:03.421Z,45.41
2019-02-23T04:28:29.426Z,44.96
2019-02-23T04:30:55.433Z,45.10
2019-02-23T04:33:21.427Z,45.21
2019-02-23T04:35:47.424Z,45.06
2019-02-23T04:38:13.422Z,45.13
2019-02-23T04:40:39.418Z,44.76
2019-02-23T04:43:05.445Z,44.63
2019-02-23T04:45:31.443Z,44.54
2019-02-23T04:47:57.444Z,45.08
2019-02-23T04:50:23.487Z,44.89
2019-02-23T04:52:49.484Z,45.22
2019-02-23T04:55:15.491Z,44.82
2019-02-23T04:57:41.491Z,44.85
2019-02-23T05:00:07.533Z,44.96
2019-02-23T05:02:33.530Z,45.03
2019-02-23T05:04:59.526Z,44.70
2019-02-23T05:07:25.524Z,44.95
2019-02-23T05:09:51.530Z,44.58
2019-02-23T05:12:17.535Z,45.10
2019-02-23T05:14:43.545Z,44.84
2019-02-23T05:17:09.543Z,45.07
2019-02-23T05:19:35.547Z,44.74
2019-02-23T05:22:01.544Z,44.76
2019-02-23T05:24:27.543Z,45.21
2019-02-23T05:26:53.539Z,44.64
2019-02-23T05:29:19.530Z,44.75
2019-02-23T05:31:45.535Z,44.92
2019-02-23T05:34:11.536Z,45.08
2019-02-23T05:36:38.229Z,44.73
2019-02-23T05:39:04.294Z,45.11
2019-02-23T05:41:30.294Z,45.20
2019-02-23T05:43:56.301Z,45.01
2019-02-23T05:46:22.328Z,45.13
2019-02-23T05:48:48.377Z,44.97
2019-02-23T05:51:15.398Z,44.80
2019-02-23T05:53:41.400Z,44.41
2019-02-23T05:56:07.395Z,44.15
2019-02-23T05:58:33.410Z,44.32
2019-02-23T06:00:59.402Z,44.49
2019-02-23T06:03:25.400Z,44.57
2019-02-23T06:05:51.406Z,45.05
2019-02-23T06:08:17.453Z,44.87
2019-02-23T06:10:44.733Z,44.50
2019-02-23T06:13:09.773Z,43.63
2019-02-23T06:15:35.793Z,44.31
2019-02-23T06:18:01.833Z,43.88
2019-02-23T06:20:28.410Z,43.42
2019-02-23T06:22:54.402Z,44.30
2019-02-23T06:25:20.703Z,43.70
2019-02-23T06:27:46.698Z,44.30
2019-02-23T06:30:12.696Z,44.21
2019-02-23T06:32:38.700Z,43.67
2019-02-23T06:35:04.722Z,44.15
2019-02-23T06:37:30.744Z,44.16
2019-02-23T06:39:57.557Z,43.93
2019-02-23T06:42:23.580Z,44.45
2019-02-23T06:44:49.609Z,44.23
2019-02-23T06:47:15.617Z,44.26
2019-02-23T06:49:41.717Z,43.68
2019-02-23T06:52:07.824Z,43.06
2019-02-23T06:54:33.827Z,43.02
2019-02-23T06:56:59.826Z,42.77
2019-02-23T06:59:25.854Z,43.14
2019-02-23T07:01:51.825Z,41.81
2019-02-23T07:04:17.839Z,41.75
2019-02-23T07:06:43.827Z,43.30
2019-02-23T07:09:09.828Z,43.26
2019-02-23T07:11:35.830Z,43.03
2019-02-23T07:14:01.836Z,43.14
2019-02-23T07:16:27.834Z,42.95
2019-02-23T07:18:53.930Z,43.39
2019-02-23T07:21:19.920Z,42.16
2019-02-23T07:23:45.926Z,43.23
2019-02-23T07:26:11.927Z,42.34
2019-02-23T07:28:37.926Z,42.23
2019-02-23T07:31:03.926Z,42.54
2019-02-23T07:33:33.095Z,43.25
2019-02-23T07:35:56.197Z,42.89
2019-02-23T07:38:22.190Z,43.47
2019-02-23T07:40:48.193Z,43.54
2019-02-23T07:43:14.201Z,43.63
2019-02-23T07:45:41.416Z,43.97
2019-02-23T07:48:08.386Z,43.92
2019-02-23T07:50:34.390Z,43.99
2019-02-23T07:53:06.571Z,43.89
2019-02-23T07:55:32.588Z,43.99
2019-02-23T07:57:58.581Z,43.96
2019-02-23T08:00:24.621Z,43.34
2019-02-23T08:02:52.832Z,43.24
2019-02-23T08:05:19.602Z,44.08
2019-02-23T08:07:45.612Z,44.13
2019-02-23T08:10:11.619Z,43.93
2019-02-23T08:12:41.363Z,43.69
2019-02-23T08:15:08.834Z,43.01
2019-02-23T08:17:35.827Z,43.35
2019-02-23T08:20:01.826Z,43.54
2019-02-23T08:22:37.077Z,42.88
2019-02-23T08:24:53.823Z,43.25
2019-02-23T08:27:19.837Z,43.58
2019-02-23T08:29:45.836Z,43.75
2019-02-23T08:32:11.848Z,43.66
2019-02-23T08:34:37.842Z,43.48
2019-02-23T08:37:03.863Z,43.40
2019-02-23T08:39:29.965Z,43.66
2019-02-23T08:41:56.348Z,43.56
2019-02-23T08:44:22.356Z,43.00
2019-02-23T08:46:48.367Z,42.88
2019-02-23T08:49:14.413Z,42.42
2019-02-23T08:51:40.557Z,43.43
2019-02-23T08:54:06.579Z,42.80
2019-02-23T08:56:32.606Z,43.13
2019-02-23T08:58:58.790Z,43.31
2019-02-23T09:01:25.122Z,43.23
2019-02-23T09:03:51.149Z,43.41
2019-02-23T09:06:17.173Z,43.35
2019-02-23T09:08:43.229Z,43.37
2019-02-23T09:11:09.182Z,42.65
2019-02-23T09:13:35.185Z,43.11
2019-02-23T09:16:01.190Z,43.13
2019-02-23T09:18:27.199Z,43.10
2019-02-23T09:20:53.214Z,42.91
2019-02-23T09:23:19.211Z,42.76
2019-02-23T09:25:45.215Z,43.42
2019-02-23T09:28:11.214Z,43.58
2019-02-23T09:30:37.252Z,43.75
2019-02-23T09:33:03.253Z,42.73
2019-02-23T09:35:29.254Z,43.23
2019-02-23T09:37:55.253Z,43.37
2019-02-23T09:40:21.328Z,43.22
2019-02-23T09:42:47.343Z,42.63
2019-02-23T09:45:13.338Z,43.28
2019-02-23T09:47:39.375Z,42.99
2019-02-23T09:50:05.367Z,43.00
2019-02-23T09:52:31.368Z,42.30
2019-02-23T09:54:57.375Z,41.62
2019-02-23T09:57:23.430Z,42.37
2019-02-23T09:59:49.432Z,42.52
2019-02-23T10:02:15.460Z,42.41
2019-02-23T10:04:41.462Z,42.50
2019-02-23T10:07:07.499Z,42.17
2019-02-23T10:09:33.513Z,42.13
2019-02-23T10:11:59.779Z,41.73
2019-02-23T10:14:25.795Z,39.85
2019-02-23T10:16:51.798Z,40.65
2019-02-23T10:19:17.923Z,41.55
2019-02-23T10:21:43.941Z,40.29
2019-02-23T10:24:09.937Z,40.85
2019-02-23T10:26:36.124Z,39.50
2019-02-23T10:29:02.090Z,40.66
2019-02-23T10:31:28.135Z,40.38
2019-02-23T10:33:54.270Z,41.30
2019-02-23T10:36:20.397Z,40.82
2019-02-23T10:38:46.407Z,40.26
2019-02-23T10:41:12.438Z,40.79
2019-02-23T10:43:38.439Z,41.06
2019-02-23T10:46:04.485Z,41.04
2019-02-23T10:48:30.487Z,40.93
2019-02-23T10:50:56.487Z,39.82
2019-02-23T10:53:32.386Z,40.99
2019-02-23T10:55:48.489Z,41.19
2019-02-23T10:58:14.495Z,39.76
2019-02-23T11:00:40.515Z,41.68
2019-02-23T11:03:06.509Z,41.15
2019-02-23T11:05:32.510Z,41.68
2019-02-23T11:07:58.513Z,42.57
2019-02-23T11:10:24.541Z,42.88
2019-02-23T11:12:50.541Z,42.78
2019-02-23T11:15:16.545Z,42.79
2019-02-23T11:17:42.650Z,43.22
2019-02-23T11:20:08.648Z,43.16
2019-02-23T11:22:34.657Z,43.10
2019-02-23T11:25:00.657Z,42.82
2019-02-23T11:27:26.674Z,42.96
2019-02-23T11:29:52.670Z,42.44
2019-02-23T11:32:18.673Z,43.11
2019-02-23T11:34:44.671Z,42.71
2019-02-23T11:37:10.668Z,43.20
2019-02-23T11:39:36.678Z,42.94
2019-02-23T11:42:02.687Z,43.02
2019-02-23T11:44:28.690Z,43.25
2019-02-23T11:47:01.765Z,42.93
2019-02-23T11:49:20.697Z,43.51
2019-02-23T11:51:46.690Z,43.54
2019-02-23T11:54:12.710Z,43.03
2019-02-23T11:56:38.708Z,42.67
2019-02-23T11:59:04.731Z,42.61
2019-02-23T12:01:30.736Z,42.39
2019-02-23T12:03:56.757Z,42.59
2019-02-23T12:06:22.765Z,43.38
2019-02-23T12:08:48.754Z,43.00
2019-02-23T12:11:14.790Z,43.49
2019-02-23T12:13:40.825Z,43.84
2019-02-23T12:16:06.826Z,44.30
2019-02-23T12:18:32.823Z,44.42
2019-02-23T12:20:58.824Z,44.67
2019-02-23T12:23:24.826Z,44.83
2019-02-23T12:25:50.847Z,45.04
2019-02-23T12:28:16.842Z,45.41
2019-02-23T12:30:42.840Z,45.41
2019-02-23T12:33:08.854Z,45.49
2019-02-23T12:35:34.848Z,45.64
2019-02-23T12:38:00.847Z,45.63
2019-02-23T12:40:26.847Z,45.78
2019-02-23T12:42:52.850Z,46.68
2019-02-23T12:45:18.865Z,46.71
2019-02-23T12:47:44.870Z,46.41
2019-02-23T12:50:10.866Z,46.39
2019-02-23T12:52:36.911Z,46.35
2019-02-23T12:55:02.917Z,46.42
2019-02-23T12:57:28.910Z,46.99
2019-02-23T12:59:54.943Z,46.55
2019-02-23T13:02:20.954Z,46.77
2019-02-23T13:04:46.968Z,47.16
2019-02-23T13:07:12.970Z,47.35
2019-02-23T13:09:38.980Z,47.15
2019-02-23T13:12:04.989Z,47.67
2019-02-23T13:14:30.987Z,47.07
2019-02-23T13:16:58.732Z,46.75
2019-02-23T13:19:22.987Z,46.48
2019-02-23T13:21:49.009Z,46.60
2019-02-23T13:24:15.002Z,46.29
2019-02-23T13:26:41.002Z,45.95
2019-02-23T13:29:07.001Z,45.87
2019-02-23T13:31:33.057Z,45.49
2019-02-23T13:34:00.124Z,45.26
2019-02-23T13:36:25.078Z,45.07
2019-02-23T13:38:51.076Z,44.71
2019-02-23T13:41:17.092Z,45.00
2019-02-23T13:43:43.090Z,44.80
2019-02-23T13:46:09.110Z,44.87
2019-02-23T13:48:35.143Z,44.32
2019-02-23T13:51:01.104Z,44.62
2019-02-23T13:53:27.151Z,44.19
2019-02-23T13:55:53.169Z,44.18
2019-02-23T13:58:19.181Z,44.29
2019-02-23T14:00:45.200Z,44.37
2019-02-23T14:03:11.245Z,44.26
2019-02-23T14:05:37.253Z,44.26
2019-02-23T14:08:03.307Z,44.21
2019-02-23T14:10:29.302Z,44.23
2019-02-23T14:12:55.329Z,44.32
2019-02-23T14:15:21.331Z,44.28
2019-02-23T14:17:47.327Z,44.08
2019-02-23T14:20:13.331Z,44.15
2019-02-23T14:22:39.329Z,44.13
2019-02-23T14:25:05.334Z,44.14
2019-02-23T14:27:31.357Z,44.04
2019-02-23T14:29:57.804Z,44.04
2019-02-23T14:32:23.794Z,44.06
2019-02-23T14:34:49.793Z,44.12
2019-02-23T14:37:15.812Z,44.10
2019-02-23T14:39:41.880Z,44.16
2019-02-23T14:42:07.834Z,44.43
2019-02-23T14:44:33.878Z,44.16
2019-02-23T14:46:59.873Z,44.06
2019-02-23T14:49:27.824Z,43.93
2019-02-23T14:51:51.858Z,43.81
2019-02-23T14:54:17.872Z,43.85
2019-02-23T14:56:43.964Z,43.78
2019-02-23T14:59:09.951Z,43.99
2019-02-23T15:01:36.049Z,43.97
2019-02-23T15:04:05.135Z,43.94
2019-02-23T15:06:31.154Z,43.78
2019-02-23T15:08:57.151Z,43.72
2019-02-23T15:11:23.159Z,43.60
2019-02-23T15:13:49.231Z,43.64
2019-02-23T15:16:17.444Z,43.55
2019-02-23T15:18:41.284Z,43.53
2019-02-23T15:21:07.336Z,43.37
2019-02-23T15:23:33.335Z,43.35
2019-02-23T15:25:59.683Z,43.73
2019-02-23T15:28:37.261Z,43.38
2019-02-23T15:30:51.693Z,43.35
2019-02-23T15:33:18.069Z,43.40
2019-02-23T15:35:44.107Z,43.38
2019-02-23T15:38:10.273Z,43.43
2019-02-23T15:40:36.313Z,43.24
2019-02-23T15:43:02.278Z,43.51
2019-02-23T15:45:28.471Z,43.73
2019-02-23T15:47:54.557Z,43.14
2019-02-23T15:50:20.628Z,43.18
2019-02-23T15:52:46.595Z,43.36
2019-02-23T15:55:25.152Z,43.46
2019-02-23T15:57:38.758Z,43.41
2019-02-23T16:00:04.736Z,43.51
2019-02-23T16:02:32.371Z,43.62
2019-02-23T16:04:58.403Z,43.76
2019-02-23T16:07:24.388Z,43.96
2019-02-23T16:09:50.460Z,43.85
2019-02-23T16:12:16.409Z,43.90
2019-02-23T16:14:42.406Z,43.67
2019-02-23T16:17:08.420Z,43.62
2019-02-23T16:19:34.410Z,43.65
2019-02-23T16:22:00.425Z,43.55
2019-02-23T16:24:26.585Z,43.10
2019-02-23T16:26:52.599Z,43.14
2019-02-23T16:29:18.966Z,43.01
2019-02-23T16:31:45.128Z,43.69
2019-02-23T16:34:11.176Z,43.33
2019-02-23T16:36:37.372Z,43.28
2019-02-23T16:39:03.366Z,43.43
2019-02-23T16:41:29.390Z,43.40
2019-02-23T16:43:55.384Z,43.48
2019-02-23T16:46:21.733Z,43.49
2019-02-23T16:48:47.780Z,43.67
2019-02-23T16:51:13.796Z,43.65
2019-02-23T16:53:39.807Z,43.72
2019-02-23T16:56:06.289Z,43.70
2019-02-23T16:58:32.325Z,43.70
2019-02-23T17:00:58.409Z,43.75
2019-02-23T17:03:24.524Z,43.74
2019-02-23T17:06:02.997Z,43.80
2019-02-23T17:08:29.041Z,43.79
2019-02-23T17:11:05.263Z,44.21
2019-02-23T17:13:31.372Z,44.39
2019-02-23T17:15:57.373Z,44.57
2019-02-23T17:18:23.393Z,44.68
2019-02-23T17:20:49.401Z,44.64
2019-02-23T17:23:15.412Z,44.46
2019-02-23T17:25:41.424Z,44.52
2019-02-23T17:28:07.429Z,44.44
2019-02-23T17:30:33.452Z,44.42
2019-02-23T17:32:59.503Z,44.35
2019-02-23T17:35:25.526Z,44.46
2019-02-23T17:37:51.541Z,44.75
2019-02-23T17:40:17.539Z,44.65
2019-02-23T17:42:44.668Z,44.92
2019-02-23T17:45:10.663Z,44.72
2019-02-23T17:47:36.679Z,45.27
2019-02-23T17:50:02.716Z,45.32
2019-02-23T17:52:28.720Z,45.23
2019-02-23T17:54:54.728Z,45.50
2019-02-23T17:57:20.724Z,45.91
2019-02-23T17:59:46.761Z,45.59
2019-02-23T18:02:12.753Z,45.56
2019-02-23T18:04:38.752Z,45.38
2019-02-23T18:07:05.738Z,45.03
2019-02-23T18:09:30.793Z,44.32
2019-02-23T18:11:58.448Z,44.00
2019-02-23T18:14:23.123Z,44.37
2019-02-23T18:16:49.136Z,44.36
2019-02-23T18:19:15.137Z,43.57
2019-02-23T18:21:41.162Z,44.17
2019-02-23T18:24:07.166Z,44.34
2019-02-23T18:26:36.054Z,44.28
2019-02-23T18:29:02.147Z,44.34
2019-02-23T18:31:28.142Z,44.36
2019-02-23T18:33:54.155Z,44.43
2019-02-23T18:36:20.147Z,44.41
2019-02-23T18:38:46.154Z,44.50
2019-02-23T18:41:12.194Z,44.72
2019-02-23T18:43:38.201Z,45.16
2019-02-23T18:46:05.430Z,45.41
2019-02-23T18:48:30.215Z,45.69
2019-02-23T18:50:56.248Z,45.88
2019-02-23T18:53:22.240Z,45.94
2019-02-23T18:55:48.236Z,46.19
2019-02-23T18:58:14.232Z,46.40
2019-02-23T19:00:40.479Z,46.36
2019-02-23T19:03:06.478Z,46.22
2019-02-23T19:05:32.493Z,46.44
2019-02-23T19:07:58.495Z,46.43
2019-02-23T19:10:24.661Z,46.30
2019-02-23T19:12:50.665Z,46.40
2019-02-23T19:15:16.939Z,46.37
2019-02-23T19:17:42.941Z,46.25
2019-02-23T19:20:09.382Z,46.07
2019-02-23T19:22:35.382Z,46.06
2019-02-23T19:25:01.397Z,46.17
2019-02-23T19:27:27.407Z,46.13
2019-02-23T19:29:53.432Z,46.06
2019-02-23T19:32:19.419Z,46.11
2019-02-23T19:34:45.477Z,46.05
2019-02-23T19:37:11.508Z,45.91
2019-02-23T19:39:37.521Z,45.82
2019-02-23T19:42:03.523Z,45.81
2019-02-23T19:44:30.709Z,45.79
2019-02-23T19:46:55.534Z,45.63
2019-02-23T19:49:21.543Z,45.27
2019-02-23T19:51:47.585Z,45.38
2019-02-23T19:54:13.876Z,45.45
2019-02-23T19:56:46.687Z,45.51
2019-02-23T19:59:05.550Z,45.55
2019-02-23T20:01:31.614Z,45.40
2019-02-23T20:03:57.633Z,45.43
2019-02-23T20:06:23.638Z,45.51
2019-02-23T20:08:49.963Z,45.50
2019-02-23T20:11:17.846Z,45.56
2019-02-23T20:13:43.847Z,45.61
2019-02-23T20:16:09.874Z,45.61
2019-02-23T20:18:35.866Z,45.63
2019-02-23T20:21:01.926Z,45.60
2019-02-23T20:23:27.932Z,45.49
2019-02-23T20:25:53.932Z,45.47
2019-02-23T20:28:19.930Z,45.40
2019-02-23T20:30:45.966Z,45.36
2019-02-23T20:33:11.957Z,45.34
2019-02-23T20:35:37.999Z,45.24
2019-02-23T20:38:04.004Z,45.25
2019-02-23T20:40:30.016Z,45.22
2019-02-23T20:42:56.153Z,45.13
2019-02-23T20:45:22.160Z,45.10
2019-02-23T20:47:48.160Z,45.15
2019-02-23T20:50:14.162Z,45.08
2019-02-23T20:52:40.162Z,45.06
2019-02-23T20:55:06.180Z,45.03
2019-02-23T20:57:32.192Z,45.01
2019-02-23T20:59:58.187Z,45.08
2019-02-23T21:02:24.183Z,45.17
2019-02-23T21:04:50.174Z,44.97
2019-02-23T21:07:16.187Z,44.93
2019-02-23T21:09:42.180Z,44.93
2019-02-23T21:12:08.184Z,44.92
2019-02-23T21:14:34.181Z,44.91
2019-02-23T21:17:00.187Z,44.91
2019-02-23T21:19:26.188Z,44.85
2019-02-23T21:21:52.191Z,44.95
2019-02-23T21:24:18.191Z,44.96
2019-02-23T21:26:44.200Z,44.83
2019-02-23T21:29:10.215Z,44.83
2019-02-23T21:31:36.219Z,44.80
2019-02-23T21:34:02.212Z,44.81
2019-02-23T21:36:28.215Z,44.77
2019-02-23T21:38:54.215Z,44.78
2019-02-23T21:41:20.214Z,44.89
2019-02-23T21:43:46.214Z,44.84
2019-02-23T21:46:13.924Z,44.78
2019-02-23T21:48:38.212Z,44.71
2019-02-23T21:51:04.211Z,44.70
2019-02-23T21:53:30.251Z,44.99
2019-02-23T21:55:56.220Z,44.84
2019-02-23T21:58:22.224Z,44.94
2019-02-23T22:00:48.229Z,44.67
2019-02-23T22:03:14.224Z,44.68
2019-02-23T22:05:40.218Z,44.62
2019-02-23T22:08:06.221Z,44.68
2019-02-23T22:10:32.311Z,44.64
2019-02-23T22:12:58.227Z,44.60
2019-02-23T22:15:24.224Z,44.82
2019-02-23T22:17:50.227Z,44.54
2019-02-23T22:20:16.224Z,44.72
2019-02-23T22:22:42.248Z,44.71
2019-02-23T22:25:08.248Z,44.62
2019-02-23T22:27:34.273Z,44.63
2019-02-23T22:30:00.504Z,44.65
2019-02-23T22:32:26.249Z,44.80
2019-02-23T22:34:52.249Z,44.51
2019-02-23T22:37:18.276Z,44.59
2019-02-23T22:39:44.293Z,44.63
2019-02-23T22:42:10.287Z,44.50
2019-02-23T22:44:36.289Z,44.47
2019-02-23T22:47:02.278Z,44.66
2019-02-23T22:49:28.298Z,44.46
2019-02-23T22:51:54.296Z,44.47
2019-02-23T22:54:20.294Z,44.48
2019-02-23T22:56:46.300Z,44.63
2019-02-23T22:59:12.296Z,44.54
2019-02-23T23:01:38.301Z,44.40
2019-02-23T23:04:04.295Z,44.47
2019-02-23T23:06:30.310Z,44.47
2019-02-23T23:08:56.305Z,44.36
2019-02-23T23:11:22.324Z,44.60
2019-02-23T23:13:48.323Z,44.40
2019-02-23T23:16:14.318Z,44.70
2019-02-23T23:18:40.315Z,44.36
2019-02-23T23:21:06.309Z,44.54
2019-02-23T23:23:32.312Z,44.62
2019-02-23T23:25:58.312Z,44.31
2019-02-23T23:28:24.334Z,44.27
2019-02-23T23:30:50.347Z,44.30
2019-02-23T23:33:16.352Z,44.28
2019-02-23T23:35:42.348Z,44.54
2019-02-23T23:38:08.363Z,44.21
2019-02-23T23:40:34.358Z,44.45
2019-02-23T23:43:00.368Z,44.23
2019-02-23T23:45:26.371Z,44.28
2019-02-23T23:47:52.426Z,44.34
2019-02-23T23:50:18.425Z,44.54
2019-02-23T23:52:44.418Z,44.57
2019-02-23T23:55:11.628Z,44.22
2019-02-23T23:57:36.422Z,44.52
